sensor_id;sensor_type;location;lat;lon;timestamp;P1;durP1;ratioP1;P2;durP2;ratioP2
75885;SDS011;64561;44.018;10.144;2023-02-04T00:00:11;7.45;;;3.50;;
75885;SDS011;64561;44.018;10.144;2023-02-04T00:02:40;8.13;;;3.80;;
75885;SDS011;64561;44.018;10.144;2023-02-04T00:05:07;10.52;;;3.88;;
75885;SDS011;64561;44.018;10.144;2023-02-04T00:07:35;8.82;;;4.63;;
75885;SDS011;64561;44.018;10.144;2023-02-04T00:10:03;8.82;;;3.67;;
75885;SDS011;64561;44.018;10.144;2023-02-04T00:12:31;8.35;;;3.78;;
75885;SDS011;64561;44.018;10.144;2023-02-04T00:14:59;5.57;;;3.38;;
75885;SDS011;64561;44.018;10.144;2023-02-04T00:17:26;7.15;;;3.10;;
75885;SDS011;64561;44.018;10.144;2023-02-04T00:19:53;5.25;;;2.70;;
75885;SDS011;64561;44.018;10.144;2023-02-04T00:22:20;7.18;;;3.03;;
75885;SDS011;64561;44.018;10.144;2023-02-04T00:24:47;6.25;;;2.75;;
75885;SDS011;64561;44.018;10.144;2023-02-04T00:27:15;4.30;;;2.40;;
75885;SDS011;64561;44.018;10.144;2023-02-04T00:29:43;4.70;;;2.35;;
75885;SDS011;64561;44.018;10.144;2023-02-04T00:32:11;4.32;;;2.42;;
75885;SDS011;64561;44.018;10.144;2023-02-04T00:34:38;4.20;;;2.42;;
75885;SDS011;64561;44.018;10.144;2023-02-04T00:37:05;4.97;;;2.83;;
75885;SDS011;64561;44.018;10.144;2023-02-04T00:39:32;4.80;;;2.28;;
75885;SDS011;64561;44.018;10.144;2023-02-04T00:41:59;3.13;;;2.08;;
75885;SDS011;64561;44.018;10.144;2023-02-04T00:44:26;6.03;;;3.15;;
75885;SDS011;64561;44.018;10.144;2023-02-04T00:46:55;6.03;;;2.90;;
75885;SDS011;64561;44.018;10.144;2023-02-04T00:49:22;4.38;;;2.30;;
75885;SDS011;64561;44.018;10.144;2023-02-04T00:51:50;3.75;;;2.53;;
75885;SDS011;64561;44.018;10.144;2023-02-04T00:54:17;4.72;;;2.17;;
75885;SDS011;64561;44.018;10.144;2023-02-04T00:56:44;5.03;;;2.15;;
75885;SDS011;64561;44.018;10.144;2023-02-04T00:59:11;4.20;;;2.00;;
75885;SDS011;64561;44.018;10.144;2023-02-04T01:01:39;8.90;;;2.45;;
75885;SDS011;64561;44.018;10.144;2023-02-04T01:04:06;4.32;;;2.00;;
75885;SDS011;64561;44.018;10.144;2023-02-04T01:06:33;4.25;;;2.28;;
75885;SDS011;64561;44.018;10.144;2023-02-04T01:09:01;5.13;;;2.22;;
75885;SDS011;64561;44.018;10.144;2023-02-04T01:11:29;4.40;;;2.00;;
75885;SDS011;64561;44.018;10.144;2023-02-04T01:13:56;4.75;;;2.25;;
75885;SDS011;64561;44.018;10.144;2023-02-04T01:16:23;4.55;;;2.28;;
75885;SDS011;64561;44.018;10.144;2023-02-04T01:18:50;3.15;;;1.90;;
75885;SDS011;64561;44.018;10.144;2023-02-04T01:21:18;5.05;;;2.10;;
75885;SDS011;64561;44.018;10.144;2023-02-04T01:23:45;6.07;;;2.20;;
75885;SDS011;64561;44.018;10.144;2023-02-04T01:26:12;3.85;;;1.88;;
75885;SDS011;64561;44.018;10.144;2023-02-04T01:28:39;5.78;;;2.20;;
75885;SDS011;64561;44.018;10.144;2023-02-04T01:31:05;5.28;;;1.95;;
75885;SDS011;64561;44.018;10.144;2023-02-04T01:33:32;4.18;;;2.22;;
75885;SDS011;64561;44.018;10.144;2023-02-04T01:35:59;3.00;;;1.75;;
75885;SDS011;64561;44.018;10.144;2023-02-04T01:38:28;5.00;;;2.97;;
75885;SDS011;64561;44.018;10.144;2023-02-04T01:40:54;3.42;;;2.35;;
75885;SDS011;64561;44.018;10.144;2023-02-04T01:43:22;3.80;;;2.00;;
75885;SDS011;64561;44.018;10.144;2023-02-04T01:45:49;8.63;;;2.60;;
75885;SDS011;64561;44.018;10.144;2023-02-04T01:48:18;5.00;;;2.10;;
75885;SDS011;64561;44.018;10.144;2023-02-04T01:50:49;5.20;;;2.03;;
75885;SDS011;64561;44.018;10.144;2023-02-04T01:53:25;3.60;;;1.92;;
75885;SDS011;64561;44.018;10.144;2023-02-04T01:55:52;3.25;;;1.75;;
75885;SDS011;64561;44.018;10.144;2023-02-04T01:58:19;4.70;;;2.03;;
75885;SDS011;64561;44.018;10.144;2023-02-04T02:00:46;4.93;;;2.28;;
75885;SDS011;64561;44.018;10.144;2023-02-04T02:03:13;2.80;;;2.00;;
75885;SDS011;64561;44.018;10.144;2023-02-04T02:05:41;8.40;;;2.40;;
75885;SDS011;64561;44.018;10.144;2023-02-04T02:08:14;4.13;;;1.80;;
75885;SDS011;64561;44.018;10.144;2023-02-04T02:10:45;6.22;;;2.30;;
75885;SDS011;64561;44.018;10.144;2023-02-04T02:13:15;4.22;;;2.30;;
75885;SDS011;64561;44.018;10.144;2023-02-04T02:15:44;5.60;;;2.25;;
75885;SDS011;64561;44.018;10.144;2023-02-04T02:18:13;6.78;;;1.90;;
75885;SDS011;64561;44.018;10.144;2023-02-04T02:20:41;3.90;;;1.77;;
75885;SDS011;64561;44.018;10.144;2023-02-04T02:25:46;4.88;;;1.90;;
75885;SDS011;64561;44.018;10.144;2023-02-04T02:28:15;5.53;;;2.30;;
75885;SDS011;64561;44.018;10.144;2023-02-04T02:30:44;3.92;;;2.03;;
75885;SDS011;64561;44.018;10.144;2023-02-04T02:33:13;3.47;;;1.92;;
75885;SDS011;64561;44.018;10.144;2023-02-04T02:35:43;6.97;;;2.22;;
75885;SDS011;64561;44.018;10.144;2023-02-04T02:38:17;8.82;;;2.28;;
75885;SDS011;64561;44.018;10.144;2023-02-04T02:40:46;7.15;;;2.00;;
75885;SDS011;64561;44.018;10.144;2023-02-04T02:43:15;5.97;;;1.83;;
75885;SDS011;64561;44.018;10.144;2023-02-04T02:45:44;5.65;;;2.05;;
75885;SDS011;64561;44.018;10.144;2023-02-04T02:48:12;6.13;;;2.60;;
75885;SDS011;64561;44.018;10.144;2023-02-04T02:50:39;5.18;;;1.98;;
75885;SDS011;64561;44.018;10.144;2023-02-04T02:53:11;6.07;;;1.95;;
75885;SDS011;64561;44.018;10.144;2023-02-04T02:55:40;4.80;;;2.08;;
75885;SDS011;64561;44.018;10.144;2023-02-04T02:58:21;6.03;;;2.25;;
75885;SDS011;64561;44.018;10.144;2023-02-04T03:00:49;6.72;;;2.13;;
75885;SDS011;64561;44.018;10.144;2023-02-04T03:03:17;3.55;;;1.85;;
75885;SDS011;64561;44.018;10.144;2023-02-04T03:05:51;4.47;;;1.85;;
75885;SDS011;64561;44.018;10.144;2023-02-04T03:08:23;7.18;;;1.90;;
75885;SDS011;64561;44.018;10.144;2023-02-04T03:10:50;6.07;;;1.90;;
75885;SDS011;64561;44.018;10.144;2023-02-04T03:13:17;4.05;;;1.98;;
75885;SDS011;64561;44.018;10.144;2023-02-04T03:15:45;3.30;;;1.83;;
75885;SDS011;64561;44.018;10.144;2023-02-04T03:18:14;4.95;;;2.03;;
75885;SDS011;64561;44.018;10.144;2023-02-04T03:20:42;6.53;;;2.38;;
75885;SDS011;64561;44.018;10.144;2023-02-04T03:23:10;3.33;;;1.83;;
75885;SDS011;64561;44.018;10.144;2023-02-04T03:25:39;4.18;;;2.05;;
75885;SDS011;64561;44.018;10.144;2023-02-04T03:28:07;3.60;;;2.00;;
75885;SDS011;64561;44.018;10.144;2023-02-04T03:30:35;4.40;;;1.67;;
75885;SDS011;64561;44.018;10.144;2023-02-04T03:33:02;5.00;;;3.05;;
75885;SDS011;64561;44.018;10.144;2023-02-04T03:35:29;7.57;;;2.53;;
75885;SDS011;64561;44.018;10.144;2023-02-04T03:37:56;2.63;;;1.60;;
75885;SDS011;64561;44.018;10.144;2023-02-04T03:40:23;4.43;;;2.03;;
75885;SDS011;64561;44.018;10.144;2023-02-04T03:42:49;3.70;;;2.05;;
75885;SDS011;64561;44.018;10.144;2023-02-04T03:45:16;5.03;;;2.13;;
75885;SDS011;64561;44.018;10.144;2023-02-04T03:47:43;6.07;;;2.45;;
75885;SDS011;64561;44.018;10.144;2023-02-04T03:50:10;4.22;;;2.22;;
75885;SDS011;64561;44.018;10.144;2023-02-04T03:52:39;4.28;;;1.75;;
75885;SDS011;64561;44.018;10.144;2023-02-04T03:55:06;4.35;;;1.88;;
75885;SDS011;64561;44.018;10.144;2023-02-04T03:57:33;4.90;;;2.33;;
75885;SDS011;64561;44.018;10.144;2023-02-04T04:00:00;5.55;;;2.75;;
75885;SDS011;64561;44.018;10.144;2023-02-04T04:02:37;5.35;;;2.03;;
75885;SDS011;64561;44.018;10.144;2023-02-04T04:05:04;4.53;;;1.70;;
75885;SDS011;64561;44.018;10.144;2023-02-04T04:07:31;5.15;;;2.83;;
75885;SDS011;64561;44.018;10.144;2023-02-04T04:09:58;6.18;;;2.05;;
75885;SDS011;64561;44.018;10.144;2023-02-04T04:12:25;3.75;;;1.63;;
75885;SDS011;64561;44.018;10.144;2023-02-04T04:14:52;4.50;;;2.00;;
75885;SDS011;64561;44.018;10.144;2023-02-04T04:17:19;13.45;;;2.58;;
75885;SDS011;64561;44.018;10.144;2023-02-04T04:19:46;4.47;;;2.03;;
75885;SDS011;64561;44.018;10.144;2023-02-04T04:22:14;5.13;;;1.80;;
75885;SDS011;64561;44.018;10.144;2023-02-04T04:24:41;3.40;;;2.00;;
75885;SDS011;64561;44.018;10.144;2023-02-04T04:27:08;6.47;;;1.73;;
75885;SDS011;64561;44.018;10.144;2023-02-04T04:29:35;4.93;;;2.08;;
75885;SDS011;64561;44.018;10.144;2023-02-04T04:32:02;7.32;;;1.98;;
75885;SDS011;64561;44.018;10.144;2023-02-04T04:34:33;4.95;;;2.55;;
75885;SDS011;64561;44.018;10.144;2023-02-04T04:36:59;3.67;;;1.98;;
75885;SDS011;64561;44.018;10.144;2023-02-04T04:39:28;3.33;;;1.90;;
75885;SDS011;64561;44.018;10.144;2023-02-04T04:41:55;4.57;;;2.10;;
75885;SDS011;64561;44.018;10.144;2023-02-04T04:44:22;6.00;;;1.95;;
75885;SDS011;64561;44.018;10.144;2023-02-04T04:46:49;5.28;;;2.20;;
75885;SDS011;64561;44.018;10.144;2023-02-04T04:49:16;5.30;;;2.40;;
75885;SDS011;64561;44.018;10.144;2023-02-04T04:51:43;5.82;;;2.25;;
75885;SDS011;64561;44.018;10.144;2023-02-04T04:54:10;5.45;;;2.15;;
75885;SDS011;64561;44.018;10.144;2023-02-04T04:56:37;5.20;;;2.25;;
75885;SDS011;64561;44.018;10.144;2023-02-04T04:59:04;5.65;;;2.15;;
75885;SDS011;64561;44.018;10.144;2023-02-04T05:01:31;4.70;;;2.15;;
75885;SDS011;64561;44.018;10.144;2023-02-04T05:03:58;8.73;;;2.22;;
75885;SDS011;64561;44.018;10.144;2023-02-04T05:06:25;3.67;;;1.98;;
75885;SDS011;64561;44.018;10.144;2023-02-04T05:08:52;5.57;;;2.05;;
75885;SDS011;64561;44.018;10.144;2023-02-04T05:11:19;4.03;;;2.10;;
75885;SDS011;64561;44.018;10.144;2023-02-04T05:13:46;6.80;;;2.10;;
75885;SDS011;64561;44.018;10.144;2023-02-04T05:16:13;6.22;;;2.83;;
75885;SDS011;64561;44.018;10.144;2023-02-04T05:18:41;6.68;;;2.50;;
75885;SDS011;64561;44.018;10.144;2023-02-04T05:21:08;6.63;;;2.97;;
75885;SDS011;64561;44.018;10.144;2023-02-04T05:23:35;7.75;;;2.35;;
75885;SDS011;64561;44.018;10.144;2023-02-04T05:26:02;7.18;;;3.00;;
75885;SDS011;64561;44.018;10.144;2023-02-04T05:28:28;4.85;;;3.22;;
75885;SDS011;64561;44.018;10.144;2023-02-04T05:30:55;9.13;;;3.50;;
75885;SDS011;64561;44.018;10.144;2023-02-04T05:33:22;8.43;;;3.40;;
75885;SDS011;64561;44.018;10.144;2023-02-04T05:35:49;8.57;;;3.20;;
75885;SDS011;64561;44.018;10.144;2023-02-04T05:38:16;3.95;;;2.60;;
75885;SDS011;64561;44.018;10.144;2023-02-04T05:40:43;5.55;;;3.05;;
75885;SDS011;64561;44.018;10.144;2023-02-04T05:43:10;5.82;;;2.60;;
75885;SDS011;64561;44.018;10.144;2023-02-04T05:45:36;15.13;;;3.58;;
75885;SDS011;64561;44.018;10.144;2023-02-04T05:48:03;7.85;;;2.60;;
75885;SDS011;64561;44.018;10.144;2023-02-04T05:50:30;4.78;;;2.30;;
75885;SDS011;64561;44.018;10.144;2023-02-04T05:53:07;7.03;;;2.60;;
75885;SDS011;64561;44.018;10.144;2023-02-04T05:55:34;6.43;;;2.58;;
75885;SDS011;64561;44.018;10.144;2023-02-04T05:58:01;6.18;;;2.65;;
75885;SDS011;64561;44.018;10.144;2023-02-04T06:00:28;8.18;;;2.97;;
75885;SDS011;64561;44.018;10.144;2023-02-04T06:02:55;8.23;;;3.65;;
75885;SDS011;64561;44.018;10.144;2023-02-04T06:05:22;12.35;;;3.50;;
75885;SDS011;64561;44.018;10.144;2023-02-04T06:07:49;7.05;;;4.43;;
75885;SDS011;64561;44.018;10.144;2023-02-04T06:10:16;7.32;;;3.78;;
75885;SDS011;64561;44.018;10.144;2023-02-04T06:12:43;7.88;;;3.45;;
75885;SDS011;64561;44.018;10.144;2023-02-04T06:15:10;6.72;;;3.10;;
75885;SDS011;64561;44.018;10.144;2023-02-04T06:17:38;8.50;;;4.32;;
75885;SDS011;64561;44.018;10.144;2023-02-04T06:20:05;8.18;;;5.10;;
75885;SDS011;64561;44.018;10.144;2023-02-04T06:22:33;8.48;;;4.18;;
75885;SDS011;64561;44.018;10.144;2023-02-04T06:25:01;6.95;;;4.05;;
75885;SDS011;64561;44.018;10.144;2023-02-04T06:27:28;10.38;;;4.82;;
75885;SDS011;64561;44.018;10.144;2023-02-04T06:29:55;9.27;;;3.65;;
75885;SDS011;64561;44.018;10.144;2023-02-04T06:32:22;9.18;;;5.05;;
75885;SDS011;64561;44.018;10.144;2023-02-04T06:34:49;7.90;;;4.18;;
75885;SDS011;64561;44.018;10.144;2023-02-04T06:37:19;9.20;;;4.88;;
75885;SDS011;64561;44.018;10.144;2023-02-04T06:39:49;7.32;;;4.38;;
75885;SDS011;64561;44.018;10.144;2023-02-04T06:42:17;12.82;;;5.35;;
75885;SDS011;64561;44.018;10.144;2023-02-04T06:44:44;10.43;;;5.45;;
75885;SDS011;64561;44.018;10.144;2023-02-04T06:47:11;17.25;;;5.85;;
75885;SDS011;64561;44.018;10.144;2023-02-04T06:49:37;15.02;;;7.25;;
75885;SDS011;64561;44.018;10.144;2023-02-04T06:52:04;12.07;;;5.97;;
75885;SDS011;64561;44.018;10.144;2023-02-04T06:54:31;11.50;;;5.97;;
75885;SDS011;64561;44.018;10.144;2023-02-04T06:56:58;11.20;;;5.50;;
75885;SDS011;64561;44.018;10.144;2023-02-04T06:59:38;10.77;;;5.63;;
75885;SDS011;64561;44.018;10.144;2023-02-04T07:02:06;18.92;;;7.88;;
75885;SDS011;64561;44.018;10.144;2023-02-04T07:04:33;12.95;;;5.63;;
75885;SDS011;64561;44.018;10.144;2023-02-04T07:07:00;12.48;;;4.80;;
75885;SDS011;64561;44.018;10.144;2023-02-04T07:09:27;10.18;;;5.15;;
75885;SDS011;64561;44.018;10.144;2023-02-04T07:11:55;11.50;;;5.03;;
75885;SDS011;64561;44.018;10.144;2023-02-04T07:14:21;14.43;;;5.72;;
75885;SDS011;64561;44.018;10.144;2023-02-04T07:16:48;14.18;;;8.00;;
75885;SDS011;64561;44.018;10.144;2023-02-04T07:19:15;13.20;;;7.43;;
75885;SDS011;64561;44.018;10.144;2023-02-04T07:21:42;12.43;;;5.80;;
75885;SDS011;64561;44.018;10.144;2023-02-04T07:24:09;14.32;;;6.63;;
75885;SDS011;64561;44.018;10.144;2023-02-04T07:26:35;11.98;;;5.53;;
75885;SDS011;64561;44.018;10.144;2023-02-04T07:29:02;11.88;;;5.70;;
75885;SDS011;64561;44.018;10.144;2023-02-04T07:31:29;12.20;;;6.05;;
75885;SDS011;64561;44.018;10.144;2023-02-04T07:33:56;13.82;;;6.10;;
75885;SDS011;64561;44.018;10.144;2023-02-04T07:36:23;10.57;;;6.53;;
75885;SDS011;64561;44.018;10.144;2023-02-04T07:38:51;14.85;;;7.13;;
75885;SDS011;64561;44.018;10.144;2023-02-04T07:41:18;16.48;;;8.73;;
75885;SDS011;64561;44.018;10.144;2023-02-04T07:43:46;22.38;;;9.60;;
75885;SDS011;64561;44.018;10.144;2023-02-04T07:46:13;17.30;;;8.63;;
75885;SDS011;64561;44.018;10.144;2023-02-04T07:48:40;15.13;;;7.35;;
75885;SDS011;64561;44.018;10.144;2023-02-04T07:51:06;14.23;;;7.63;;
75885;SDS011;64561;44.018;10.144;2023-02-04T07:53:33;17.48;;;9.18;;
75885;SDS011;64561;44.018;10.144;2023-02-04T07:56:00;15.95;;;9.60;;
75885;SDS011;64561;44.018;10.144;2023-02-04T07:58:27;18.80;;;9.65;;
75885;SDS011;64561;44.018;10.144;2023-02-04T08:00:54;15.68;;;9.00;;
75885;SDS011;64561;44.018;10.144;2023-02-04T08:03:20;16.48;;;8.10;;
75885;SDS011;64561;44.018;10.144;2023-02-04T08:05:47;16.30;;;9.45;;
75885;SDS011;64561;44.018;10.144;2023-02-04T08:08:14;18.02;;;10.73;;
75885;SDS011;64561;44.018;10.144;2023-02-04T08:10:41;22.17;;;13.43;;
75885;SDS011;64561;44.018;10.144;2023-02-04T08:13:08;18.13;;;11.55;;
75885;SDS011;64561;44.018;10.144;2023-02-04T08:15:34;19.25;;;11.38;;
75885;SDS011;64561;44.018;10.144;2023-02-04T08:18:01;28.70;;;12.40;;
75885;SDS011;64561;44.018;10.144;2023-02-04T08:20:29;28.10;;;16.58;;
75885;SDS011;64561;44.018;10.144;2023-02-04T08:22:56;25.60;;;13.77;;
75885;SDS011;64561;44.018;10.144;2023-02-04T08:25:23;34.90;;;22.30;;
75885;SDS011;64561;44.018;10.144;2023-02-04T08:27:50;85.85;;;46.40;;
75885;SDS011;64561;44.018;10.144;2023-02-04T08:30:17;46.00;;;26.10;;
75885;SDS011;64561;44.018;10.144;2023-02-04T08:32:43;44.38;;;22.90;;
75885;SDS011;64561;44.018;10.144;2023-02-04T08:35:10;55.55;;;28.75;;
75885;SDS011;64561;44.018;10.144;2023-02-04T08:37:38;98.13;;;43.85;;
75885;SDS011;64561;44.018;10.144;2023-02-04T08:40:05;64.38;;;34.28;;
75885;SDS011;64561;44.018;10.144;2023-02-04T08:42:32;75.80;;;35.63;;
75885;SDS011;64561;44.018;10.144;2023-02-04T08:45:00;65.53;;;33.42;;
75885;SDS011;64561;44.018;10.144;2023-02-04T08:47:26;47.72;;;27.38;;
75885;SDS011;64561;44.018;10.144;2023-02-04T08:49:56;45.10;;;25.15;;
75885;SDS011;64561;44.018;10.144;2023-02-04T08:52:22;49.15;;;26.05;;
75885;SDS011;64561;44.018;10.144;2023-02-04T08:54:49;98.47;;;45.65;;
75885;SDS011;64561;44.018;10.144;2023-02-04T08:57:16;63.85;;;33.90;;
75885;SDS011;64561;44.018;10.144;2023-02-04T08:59:43;57.90;;;30.02;;
75885;SDS011;64561;44.018;10.144;2023-02-04T09:02:11;74.90;;;38.97;;
75885;SDS011;64561;44.018;10.144;2023-02-04T09:04:38;78.03;;;40.38;;
75885;SDS011;64561;44.018;10.144;2023-02-04T09:07:04;78.45;;;41.03;;
75885;SDS011;64561;44.018;10.144;2023-02-04T09:09:31;75.55;;;40.22;;
75885;SDS011;64561;44.018;10.144;2023-02-04T09:11:58;72.88;;;39.03;;
75885;SDS011;64561;44.018;10.144;2023-02-04T09:14:27;76.95;;;40.92;;
75885;SDS011;64561;44.018;10.144;2023-02-04T09:16:53;73.25;;;41.90;;
75885;SDS011;64561;44.018;10.144;2023-02-04T09:19:20;71.13;;;35.67;;
75885;SDS011;64561;44.018;10.144;2023-02-04T09:21:51;53.67;;;33.03;;
75885;SDS011;64561;44.018;10.144;2023-02-04T09:24:19;60.67;;;32.78;;
75885;SDS011;64561;44.018;10.144;2023-02-04T09:26:49;57.03;;;32.30;;
75885;SDS011;64561;44.018;10.144;2023-02-04T09:29:15;48.78;;;28.90;;
75885;SDS011;64561;44.018;10.144;2023-02-04T09:31:42;55.33;;;30.92;;
75885;SDS011;64561;44.018;10.144;2023-02-04T09:34:09;44.35;;;25.33;;
75885;SDS011;64561;44.018;10.144;2023-02-04T09:36:36;47.83;;;25.92;;
75885;SDS011;64561;44.018;10.144;2023-02-04T09:39:08;41.17;;;22.20;;
75885;SDS011;64561;44.018;10.144;2023-02-04T09:41:37;37.50;;;20.75;;
75885;SDS011;64561;44.018;10.144;2023-02-04T09:44:08;30.95;;;17.05;;
75885;SDS011;64561;44.018;10.144;2023-02-04T09:46:39;24.25;;;14.60;;
75885;SDS011;64561;44.018;10.144;2023-02-04T09:49:11;25.13;;;14.00;;
75885;SDS011;64561;44.018;10.144;2023-02-04T09:51:38;30.38;;;14.70;;
75885;SDS011;64561;44.018;10.144;2023-02-04T09:54:11;25.50;;;14.15;;
75885;SDS011;64561;44.018;10.144;2023-02-04T09:56:46;25.27;;;16.30;;
75885;SDS011;64561;44.018;10.144;2023-02-04T09:59:15;26.30;;;14.00;;
75885;SDS011;64561;44.018;10.144;2023-02-04T10:01:50;20.77;;;9.95;;
75885;SDS011;64561;44.018;10.144;2023-02-04T10:04:21;16.15;;;7.20;;
75885;SDS011;64561;44.018;10.144;2023-02-04T10:06:48;15.10;;;7.57;;
75885;SDS011;64561;44.018;10.144;2023-02-04T10:09:15;11.32;;;5.80;;
75885;SDS011;64561;44.018;10.144;2023-02-04T10:11:44;13.95;;;5.30;;
75885;SDS011;64561;44.018;10.144;2023-02-04T10:14:15;14.95;;;8.30;;
75885;SDS011;64561;44.018;10.144;2023-02-04T10:16:55;15.25;;;8.55;;
75885;SDS011;64561;44.018;10.144;2023-02-04T10:19:25;10.85;;;6.85;;
75885;SDS011;64561;44.018;10.144;2023-02-04T10:21:53;9.68;;;4.15;;
75885;SDS011;64561;44.018;10.144;2023-02-04T10:24:21;13.27;;;6.00;;
75885;SDS011;64561;44.018;10.144;2023-02-04T10:27:11;20.17;;;9.82;;
75885;SDS011;64561;44.018;10.144;2023-02-04T10:29:42;17.83;;;10.38;;
75885;SDS011;64561;44.018;10.144;2023-02-04T10:32:28;11.90;;;5.90;;
75885;SDS011;64561;44.018;10.144;2023-02-04T10:35:00;12.45;;;6.45;;
75885;SDS011;64561;44.018;10.144;2023-02-04T10:37:28;10.30;;;4.05;;
75885;SDS011;64561;44.018;10.144;2023-02-04T10:39:56;11.30;;;5.68;;
75885;SDS011;64561;44.018;10.144;2023-02-04T10:42:24;14.20;;;6.72;;
75885;SDS011;64561;44.018;10.144;2023-02-04T10:44:53;11.93;;;4.78;;
75885;SDS011;64561;44.018;10.144;2023-02-04T10:47:23;14.70;;;6.50;;
75885;SDS011;64561;44.018;10.144;2023-02-04T10:52:29;10.95;;;5.72;;
75885;SDS011;64561;44.018;10.144;2023-02-04T10:55:02;16.08;;;9.38;;
75885;SDS011;64561;44.018;10.144;2023-02-04T10:57:34;9.65;;;5.28;;
75885;SDS011;64561;44.018;10.144;2023-02-04T11:00:06;10.98;;;5.18;;
75885;SDS011;64561;44.018;10.144;2023-02-04T11:02:42;15.45;;;7.57;;
75885;SDS011;64561;44.018;10.144;2023-02-04T11:07:39;12.35;;;4.05;;
75885;SDS011;64561;44.018;10.144;2023-02-04T11:10:10;9.50;;;4.30;;
75885;SDS011;64561;44.018;10.144;2023-02-04T11:12:40;9.05;;;3.75;;
75885;SDS011;64561;44.018;10.144;2023-02-04T11:18:07;8.45;;;5.15;;
75885;SDS011;64561;44.018;10.144;2023-02-04T11:20:37;8.07;;;2.85;;
75885;SDS011;64561;44.018;10.144;2023-02-04T11:23:15;5.50;;;3.45;;
75885;SDS011;64561;44.018;10.144;2023-02-04T11:26:01;7.45;;;3.03;;
75885;SDS011;64561;44.018;10.144;2023-02-04T11:28:43;9.02;;;2.67;;
75885;SDS011;64561;44.018;10.144;2023-02-04T11:39:31;5.28;;;3.13;;
75885;SDS011;64561;44.018;10.144;2023-02-04T11:42:01;4.72;;;2.65;;
75885;SDS011;64561;44.018;10.144;2023-02-04T11:44:29;5.43;;;2.35;;
75885;SDS011;64561;44.018;10.144;2023-02-04T11:46:56;7.68;;;2.88;;
75885;SDS011;64561;44.018;10.144;2023-02-04T11:49:24;7.22;;;2.20;;
75885;SDS011;64561;44.018;10.144;2023-02-04T11:52:02;6.60;;;2.38;;
75885;SDS011;64561;44.018;10.144;2023-02-04T11:54:36;8.52;;;2.97;;
75885;SDS011;64561;44.018;10.144;2023-02-04T11:57:03;7.47;;;2.90;;
75885;SDS011;64561;44.018;10.144;2023-02-04T11:59:30;4.60;;;2.88;;
75885;SDS011;64561;44.018;10.144;2023-02-04T12:02:04;8.82;;;2.92;;
75885;SDS011;64561;44.018;10.144;2023-02-04T12:04:55;7.60;;;3.15;;
75885;SDS011;64561;44.018;10.144;2023-02-04T12:07:24;9.77;;;3.30;;
75885;SDS011;64561;44.018;10.144;2023-02-04T12:09:53;7.55;;;3.30;;
75885;SDS011;64561;44.018;10.144;2023-02-04T12:12:28;7.22;;;3.05;;
75885;SDS011;64561;44.018;10.144;2023-02-04T12:15:07;9.27;;;2.92;;
75885;SDS011;64561;44.018;10.144;2023-02-04T12:17:43;6.97;;;2.50;;
75885;SDS011;64561;44.018;10.144;2023-02-04T12:20:14;10.07;;;2.58;;
75885;SDS011;64561;44.018;10.144;2023-02-04T12:22:41;7.30;;;2.97;;
75885;SDS011;64561;44.018;10.144;2023-02-04T12:25:07;9.25;;;4.03;;
75885;SDS011;64561;44.018;10.144;2023-02-04T12:27:35;6.88;;;3.60;;
75885;SDS011;64561;44.018;10.144;2023-02-04T12:30:02;8.50;;;3.28;;
75885;SDS011;64561;44.018;10.144;2023-02-04T12:32:29;7.80;;;3.53;;
75885;SDS011;64561;44.018;10.144;2023-02-04T12:34:55;7.72;;;3.25;;
75885;SDS011;64561;44.018;10.144;2023-02-04T12:37:22;8.43;;;2.85;;
75885;SDS011;64561;44.018;10.144;2023-02-04T12:39:49;9.07;;;3.17;;
75885;SDS011;64561;44.018;10.144;2023-02-04T12:42:16;5.38;;;2.60;;
75885;SDS011;64561;44.018;10.144;2023-02-04T12:44:43;11.10;;;4.30;;
75885;SDS011;64561;44.018;10.144;2023-02-04T12:47:10;7.47;;;3.90;;
75885;SDS011;64561;44.018;10.144;2023-02-04T12:49:37;9.43;;;3.08;;
75885;SDS011;64561;44.018;10.144;2023-02-04T12:52:04;6.03;;;2.85;;
75885;SDS011;64561;44.018;10.144;2023-02-04T12:54:31;7.68;;;3.35;;
75885;SDS011;64561;44.018;10.144;2023-02-04T12:56:58;5.35;;;2.92;;
75885;SDS011;64561;44.018;10.144;2023-02-04T12:59:28;9.15;;;3.83;;
75885;SDS011;64561;44.018;10.144;2023-02-04T13:01:57;7.40;;;2.92;;
75885;SDS011;64561;44.018;10.144;2023-02-04T13:04:24;8.80;;;3.97;;
75885;SDS011;64561;44.018;10.144;2023-02-04T13:06:51;14.70;;;4.30;;
75885;SDS011;64561;44.018;10.144;2023-02-04T13:09:22;11.85;;;3.50;;
75885;SDS011;64561;44.018;10.144;2023-02-04T13:11:49;11.23;;;7.18;;
75885;SDS011;64561;44.018;10.144;2023-02-04T13:14:16;7.70;;;4.30;;
75885;SDS011;64561;44.018;10.144;2023-02-04T13:16:43;6.93;;;3.22;;
75885;SDS011;64561;44.018;10.144;2023-02-04T13:19:10;8.25;;;2.60;;
75885;SDS011;64561;44.018;10.144;2023-02-04T13:21:37;4.22;;;2.45;;
75885;SDS011;64561;44.018;10.144;2023-02-04T13:24:06;9.13;;;4.82;;
75885;SDS011;64561;44.018;10.144;2023-02-04T13:26:33;5.70;;;4.00;;
75885;SDS011;64561;44.018;10.144;2023-02-04T13:29:01;8.57;;;5.50;;
75885;SDS011;64561;44.018;10.144;2023-02-04T13:31:28;9.20;;;3.33;;
75885;SDS011;64561;44.018;10.144;2023-02-04T13:33:55;9.02;;;3.22;;
75885;SDS011;64561;44.018;10.144;2023-02-04T13:36:22;7.93;;;3.63;;
75885;SDS011;64561;44.018;10.144;2023-02-04T13:38:49;7.88;;;2.90;;
75885;SDS011;64561;44.018;10.144;2023-02-04T13:41:18;10.85;;;3.78;;
75885;SDS011;64561;44.018;10.144;2023-02-04T13:44:17;5.13;;;2.80;;
75885;SDS011;64561;44.018;10.144;2023-02-04T13:47:17;6.15;;;2.75;;
75885;SDS011;64561;44.018;10.144;2023-02-04T13:49:44;5.93;;;4.05;;
75885;SDS011;64561;44.018;10.144;2023-02-04T13:52:11;21.20;;;9.45;;
75885;SDS011;64561;44.018;10.144;2023-02-04T13:54:37;9.77;;;4.45;;
75885;SDS011;64561;44.018;10.144;2023-02-04T13:57:04;7.45;;;2.70;;
75885;SDS011;64561;44.018;10.144;2023-02-04T13:59:31;6.20;;;2.92;;
75885;SDS011;64561;44.018;10.144;2023-02-04T14:01:58;10.82;;;4.18;;
75885;SDS011;64561;44.018;10.144;2023-02-04T14:04:25;9.10;;;3.97;;
75885;SDS011;64561;44.018;10.144;2023-02-04T14:06:52;14.63;;;5.13;;
75885;SDS011;64561;44.018;10.144;2023-02-04T14:09:20;11.38;;;4.00;;
75885;SDS011;64561;44.018;10.144;2023-02-04T14:11:48;8.48;;;3.42;;
75885;SDS011;64561;44.018;10.144;2023-02-04T14:14:15;10.63;;;4.25;;
75885;SDS011;64561;44.018;10.144;2023-02-04T14:16:41;5.88;;;3.25;;
75885;SDS011;64561;44.018;10.144;2023-02-04T14:19:08;13.27;;;5.72;;
75885;SDS011;64561;44.018;10.144;2023-02-04T14:21:35;10.13;;;4.30;;
75885;SDS011;64561;44.018;10.144;2023-02-04T14:24:02;7.05;;;2.90;;
75885;SDS011;64561;44.018;10.144;2023-02-04T14:26:29;9.32;;;2.70;;
75885;SDS011;64561;44.018;10.144;2023-02-04T14:28:56;8.38;;;3.03;;
75885;SDS011;64561;44.018;10.144;2023-02-04T14:31:23;10.80;;;3.08;;
75885;SDS011;64561;44.018;10.144;2023-02-04T14:33:50;6.70;;;3.45;;
75885;SDS011;64561;44.018;10.144;2023-02-04T14:36:17;5.72;;;2.70;;
75885;SDS011;64561;44.018;10.144;2023-02-04T14:38:44;6.40;;;2.90;;
75885;SDS011;64561;44.018;10.144;2023-02-04T14:41:10;6.40;;;2.70;;
75885;SDS011;64561;44.018;10.144;2023-02-04T14:46:08;7.60;;;3.45;;
75885;SDS011;64561;44.018;10.144;2023-02-04T14:48:35;8.88;;;3.65;;
75885;SDS011;64561;44.018;10.144;2023-02-04T14:51:02;7.93;;;3.10;;
75885;SDS011;64561;44.018;10.144;2023-02-04T14:53:29;9.82;;;3.75;;
75885;SDS011;64561;44.018;10.144;2023-02-04T14:55:56;9.35;;;3.60;;